createdAt,value
2022-12-23T00:00:40.708Z,97104.16
2022-12-23T00:03:07.688Z,97103.13
2022-12-23T00:05:39.956Z,97100.78
2022-12-23T00:08:07.579Z,97099.16
2022-12-23T00:10:37.915Z,97104.03
2022-12-23T00:13:23.397Z,97107.75
2022-12-23T00:15:50.172Z,97109.38
2022-12-23T00:18:16.926Z,97105.78
2022-12-23T00:20:43.649Z,97097.66
2022-12-23T00:23:10.527Z,97100.56
2022-12-23T00:25:42.467Z,97104.84
2022-12-23T00:28:16.114Z,97101.72
2022-12-23T00:30:54.948Z,97110.31
2022-12-23T00:33:24.189Z,97110.31
2022-12-23T00:35:52.084Z,97110.06
2022-12-23T00:38:39.869Z,97108.22
2022-12-23T00:41:29.265Z,97112.28
2022-12-23T00:43:56.637Z,97108.00
2022-12-23T00:46:24.972Z,97100.53
2022-12-23T00:49:10.538Z,97108.91
2022-12-23T00:51:37.450Z,97094.63
2022-12-23T00:54:04.877Z,97099.28
2022-12-23T00:56:32.433Z,97100.06
2022-12-23T00:58:59.991Z,97092.28
2022-12-23T01:01:46.406Z,97093.13
2022-12-23T01:04:33.349Z,97100.06
2022-12-23T01:07:00.242Z,97091.25
2022-12-23T01:09:27.515Z,97085.44
2022-12-23T01:11:54.548Z,97086.25
2022-12-23T01:14:21.829Z,97089.25
2022-12-23T01:16:48.811Z,97087.41
2022-12-23T01:19:15.466Z,97085.28
2022-12-23T01:21:42.347Z,97089.81
2022-12-23T01:24:09.257Z,97091.69
2022-12-23T01:26:36.122Z,97091.47
2022-12-23T01:29:03.520Z,97091.47
2022-12-23T01:31:30.315Z,97078.91
2022-12-23T01:33:57.105Z,97080.53
2022-12-23T01:36:24.071Z,97075.19
2022-12-23T01:38:51.668Z,97071.72
2022-12-23T01:41:46.805Z,97080.44
2022-12-23T01:44:53.885Z,97078.56
2022-12-23T01:47:20.524Z,97075.56
2022-12-23T01:49:49.416Z,97075.22
2022-12-23T01:52:16.599Z,97088.00
2022-12-23T01:54:44.129Z,97072.94
2022-12-23T01:57:11.259Z,97072.94
2022-12-23T01:59:56.878Z,97071.88
2022-12-23T02:02:42.542Z,97068.94
2022-12-23T02:05:09.633Z,97077.56
2022-12-23T02:07:55.444Z,97079.75
2022-12-23T02:10:26.620Z,97070.91
2022-12-23T02:13:14.037Z,97076.50
2022-12-23T02:16:10.334Z,97078.63
2022-12-23T02:19:01.582Z,97072.69
2022-12-23T02:22:12.832Z,97061.19
2022-12-23T02:25:03.417Z,97055.59
2022-12-23T02:27:47.214Z,97057.13
2022-12-23T02:30:57.070Z,97051.44
2022-12-23T02:33:40.218Z,97039.38
2022-12-23T02:36:07.062Z,97041.00
2022-12-23T02:38:54.276Z,97043.44
2022-12-23T02:41:30.470Z,97042.63
2022-12-23T02:44:02.750Z,97041.00
2022-12-23T02:46:37.045Z,97043.91
2022-12-23T02:49:08.177Z,97046.81
2022-12-23T02:51:40.529Z,97045.66
2022-12-23T02:54:12.349Z,97045.09
2022-12-23T02:56:46.225Z,97050.41
2022-12-23T02:59:21.401Z,97051.22
2022-12-23T03:01:49.703Z,97061.91
2022-12-23T03:04:16.468Z,97064.38
2022-12-23T03:06:50.040Z,97054.97
2022-12-23T03:09:51.811Z,97056.00
2022-12-23T03:12:35.072Z,97056.00
2022-12-23T03:15:19.560Z,97047.19
2022-12-23T03:18:04.323Z,97059.50
2022-12-23T03:21:03.500Z,97051.38
2022-12-23T03:23:32.912Z,97057.66
2022-12-23T03:26:14.582Z,97054.88
2022-12-23T03:28:45.278Z,97058.03
2022-12-23T03:31:18.460Z,97053.72
2022-12-23T03:33:48.746Z,97049.75
2022-12-23T03:36:38.573Z,97043.97
2022-12-23T03:39:09.937Z,97040.50
2022-12-23T03:41:42.477Z,97040.03
2022-12-23T03:44:13.988Z,97046.97
2022-12-23T03:46:47.479Z,97042.19
2022-12-23T03:49:20.593Z,97046.97
2022-12-23T03:51:59.363Z,97033.16
2022-12-23T03:54:32.105Z,97029.44
2022-12-23T03:57:03.544Z,97029.69
2022-12-23T03:59:44.116Z,97028.28
2022-12-23T04:02:40.869Z,97032.34
2022-12-23T04:05:37.929Z,97026.66
2022-12-23T04:08:10.627Z,97026.34
2022-12-23T04:10:37.747Z,97032.13
2022-12-23T04:13:04.882Z,97019.84
2022-12-23T04:15:31.960Z,97016.94
2022-12-23T04:17:58.736Z,97015.53
2022-12-23T04:20:26.132Z,97017.63
2022-12-23T04:22:52.847Z,97020.53
2022-12-23T04:25:19.471Z,97024.50
2022-12-23T04:27:46.348Z,97026.81
2022-12-23T04:30:16.539Z,97027.50
2022-12-23T04:32:43.434Z,97023.94
2022-12-23T04:35:11.720Z,97030.88
2022-12-23T04:37:38.911Z,97027.88
2022-12-23T04:40:06.898Z,97033.91
2022-12-23T04:42:34.033Z,97024.97
2022-12-23T04:45:00.728Z,97027.28
2022-12-23T04:47:27.733Z,97030.91
2022-12-23T04:49:54.468Z,97017.44
2022-12-23T04:52:21.232Z,97018.72
2022-12-23T04:54:47.924Z,97024.50
2022-12-23T04:57:15.960Z,97018.25
2022-12-23T04:59:42.620Z,97013.59
2022-12-23T05:02:09.579Z,97020.81
2022-12-23T05:04:36.466Z,97018.59
2022-12-23T05:07:03.301Z,97023.94
2022-12-23T05:09:29.889Z,97021.72
2022-12-23T05:11:56.777Z,97024.03
2022-12-23T05:14:23.391Z,97026.34
2022-12-23T05:16:50.087Z,97025.78
2022-12-23T05:19:17.209Z,97015.31
2022-12-23T05:21:43.905Z,97023.81
2022-12-23T05:24:10.722Z,97025.53
2022-12-23T05:26:37.575Z,97026.44
2022-12-23T05:29:04.700Z,97025.88
2022-12-23T05:31:31.354Z,97033.03
2022-12-23T05:34:05.734Z,97033.03
2022-12-23T05:36:33.590Z,97037.56
2022-12-23T05:39:00.370Z,97033.84
2022-12-23T05:41:27.207Z,97042.06
2022-12-23T05:43:53.884Z,97041.25
2022-12-23T05:46:26.134Z,97051.34
2022-12-23T05:48:53.487Z,97052.00
2022-12-23T05:51:20.121Z,97053.75
2022-12-23T05:53:46.901Z,97058.25
2022-12-23T05:56:13.623Z,97052.69
2022-12-23T05:58:40.243Z,97057.56
2022-12-23T06:01:07.922Z,97055.50
2022-12-23T06:03:34.893Z,97049.69
2022-12-23T06:06:01.786Z,97056.69
2022-12-23T06:08:28.775Z,97055.38
2022-12-23T06:10:55.542Z,97055.75
2022-12-23T06:13:22.112Z,97044.06
2022-12-23T06:15:49.172Z,97042.31
2022-12-23T06:18:15.807Z,97049.69
2022-12-23T06:20:46.703Z,97039.72
2022-12-23T06:23:13.857Z,97037.88
2022-12-23T06:25:40.516Z,97033.59
2022-12-23T06:28:08.103Z,97035.81
2022-12-23T06:30:35.336Z,97039.53
2022-12-23T06:33:01.962Z,97044.00
2022-12-23T06:35:28.754Z,97043.44
2022-12-23T06:37:55.607Z,97037.75
2022-12-23T06:40:22.421Z,97038.22
2022-12-23T06:42:48.999Z,97039.81
2022-12-23T06:45:16.136Z,97028.16
2022-12-23T06:47:42.746Z,97041.00
2022-12-23T06:50:09.726Z,97046.31
2022-12-23T06:52:36.837Z,97040.19
2022-12-23T06:55:03.591Z,97041.34
2022-12-23T06:57:30.151Z,97049.13
2022-12-23T06:59:57.276Z,97050.19
2022-12-23T07:02:23.988Z,97052.97
2022-12-23T07:04:50.647Z,97058.88
2022-12-23T07:07:17.536Z,97060.50
2022-12-23T07:09:44.417Z,97063.28
2022-12-23T07:12:11.029Z,97069.56
2022-12-23T07:14:38.061Z,97073.84
2022-12-23T07:17:04.762Z,97073.63
2022-12-23T07:19:31.359Z,97067.28
2022-12-23T07:21:58.516Z,97064.13
2022-12-23T07:24:25.247Z,97075.97
2022-12-23T07:26:52.368Z,97071.81
2022-12-23T07:29:19.235Z,97073.44
2022-12-23T07:31:46.092Z,97086.31
2022-12-23T07:34:12.711Z,97088.72
2022-12-23T07:36:40.027Z,97088.50
2022-12-23T07:39:06.789Z,97072.63
2022-12-23T07:41:38.448Z,97064.75
2022-12-23T07:44:05.396Z,97072.53
2022-12-23T07:46:32.073Z,97075.41
2022-12-23T07:48:58.756Z,97077.25
2022-12-23T07:51:25.737Z,97081.94
2022-12-23T07:53:52.494Z,97082.50
2022-12-23T07:56:19.341Z,97084.72
2022-12-23T07:58:50.807Z,97090.03
2022-12-23T08:01:18.646Z,97085.97
2022-12-23T08:03:45.766Z,97086.31
2022-12-23T08:06:14.087Z,97091.19
2022-12-23T08:08:43.231Z,97093.97
2022-12-23T08:11:11.839Z,97101.06
2022-12-23T08:13:40.986Z,97104.19
2022-12-23T08:16:08.717Z,97109.41
2022-12-23T08:18:38.052Z,97104.88
2022-12-23T08:21:11.079Z,97106.88
2022-12-23T08:23:37.743Z,97113.03
2022-12-23T08:26:13.703Z,97119.75
2022-12-23T08:28:41.660Z,97116.84
2022-12-23T08:31:15.827Z,97103.25
2022-12-23T08:33:45.037Z,97107.34
2022-12-23T08:36:22.502Z,97109.31
2022-12-23T08:38:56.105Z,97109.19
2022-12-23T08:41:26.029Z,97106.88
2022-12-23T08:43:53.715Z,97106.97
2022-12-23T08:46:20.639Z,97110.81
2022-12-23T08:48:49.634Z,97103.97
2022-12-23T08:51:18.215Z,97102.53
2022-12-23T08:53:45.250Z,97097.63
2022-12-23T08:56:15.903Z,97086.81
2022-12-23T08:58:48.231Z,97092.75
2022-12-23T09:01:17.308Z,97091.69
2022-12-23T09:03:45.070Z,97077.53
2022-12-23T09:06:26.555Z,97083.66
2022-12-23T09:08:55.908Z,97077.28
2022-12-23T09:11:25.357Z,97072.50
2022-12-23T09:13:52.033Z,97064.59
2022-12-23T09:16:19.124Z,97067.94
2022-12-23T09:18:46.064Z,97065.38
2022-12-23T09:21:15.804Z,97068.06
2022-12-23T09:23:43.183Z,97067.19
2022-12-23T09:26:11.183Z,97072.41
2022-12-23T09:28:39.780Z,97074.94
2022-12-23T09:31:11.965Z,97076.88
2022-12-23T09:33:39.432Z,97075.81
2022-12-23T09:36:06.841Z,97074.53
2022-12-23T09:38:34.307Z,97078.59
2022-12-23T09:41:21.267Z,97084.50
2022-12-23T09:44:19.075Z,97082.41
2022-12-23T09:46:51.625Z,97086.69
2022-12-23T09:49:19.297Z,97082.41
2022-12-23T09:51:48.545Z,97086.22
2022-12-23T09:54:23.680Z,97082.47
2022-12-23T09:57:00.545Z,97079.56
2022-12-23T09:59:53.715Z,97078.91
2022-12-23T10:02:45.246Z,97082.72
2022-12-23T10:05:21.909Z,97079.34
2022-12-23T10:07:55.994Z,97072.19
2022-12-23T10:10:43.371Z,97073.31
2022-12-23T10:13:30.528Z,97079.00
2022-12-23T10:16:05.664Z,97079.31
2022-12-23T10:18:56.376Z,97082.09
2022-12-23T10:21:46.919Z,97078.34
2022-12-23T10:24:24.219Z,97075.72
2022-12-23T10:26:54.181Z,97077.44
2022-12-23T10:29:23.972Z,97077.75
2022-12-23T10:31:57.963Z,97070.03
2022-12-23T10:34:47.398Z,97069.56
2022-12-23T10:37:20.923Z,97067.44
2022-12-23T10:39:47.612Z,97076.03
2022-12-23T10:42:28.926Z,97069.88
2022-12-23T10:45:28.859Z,97070.75
2022-12-23T10:48:17.041Z,97071.31
2022-12-23T10:50:49.736Z,97068.97
2022-12-23T10:53:41.411Z,97069.28
2022-12-23T10:56:08.665Z,97067.72
2022-12-23T10:58:40.968Z,97067.22
2022-12-23T11:01:16.172Z,97060.53
2022-12-23T11:04:15.422Z,97059.81
2022-12-23T11:06:46.496Z,97049.91
2022-12-23T11:10:02.460Z,97047.28
2022-12-23T11:12:44.354Z,97043.28
2022-12-23T11:15:38.750Z,97044.16
2022-12-23T11:18:07.433Z,97034.81
2022-12-23T11:20:36.187Z,97040.97
2022-12-23T11:23:04.560Z,97030.03
2022-12-23T11:25:41.271Z,97036.50
2022-12-23T11:28:12.247Z,97040.28
2022-12-23T11:30:56.753Z,97036.03
2022-12-23T11:33:30.299Z,97028.31
2022-12-23T11:36:20.079Z,97027.06
2022-12-23T11:38:52.592Z,97036.22
2022-12-23T11:41:26.286Z,97030.34
2022-12-23T11:44:10.152Z,97031.19
2022-12-23T11:46:37.780Z,97019.41
2022-12-23T11:49:12.849Z,97020.25
2022-12-23T11:51:39.929Z,97023.81
2022-12-23T11:54:06.577Z,97034.34
2022-12-23T11:56:42.012Z,97030.59
2022-12-23T11:59:27.108Z,97030.31
2022-12-23T12:01:56.948Z,97030.09
2022-12-23T12:04:25.749Z,97031.69
2022-12-23T12:06:56.693Z,97037.06
2022-12-23T12:09:25.641Z,97034.69
2022-12-23T12:11:58.354Z,97042.47
2022-12-23T12:14:34.220Z,97040.88
2022-12-23T12:17:05.811Z,97033.41
2022-12-23T12:19:40.742Z,97021.59
2022-12-23T12:22:14.760Z,97017.91
2022-12-23T12:24:56.334Z,97014.22
2022-12-23T12:27:34.608Z,97020.47
2022-12-23T12:30:08.867Z,97025.88
2022-12-23T12:32:47.484Z,97014.63
2022-12-23T12:35:23.341Z,97009.25
2022-12-23T12:37:59.485Z,97016.53
2022-12-23T12:40:35.495Z,97020.81
2022-12-23T12:43:16.247Z,97032.13
2022-12-23T12:46:16.540Z,97026.22
2022-12-23T12:49:11.312Z,97016.53
2022-12-23T12:51:41.783Z,97020.53
2022-12-23T12:54:17.907Z,97019.41
2022-12-23T12:56:48.200Z,97015.31
2022-12-23T12:59:20.472Z,97026.25
2022-12-23T13:02:01.010Z,97030.81
2022-12-23T13:04:39.607Z,97028.06
2022-12-23T13:07:15.943Z,97025.69
2022-12-23T13:09:51.443Z,97026.00
2022-12-23T13:12:52.713Z,97031.66
2022-12-23T13:15:30.352Z,97029.25
2022-12-23T13:18:03.415Z,97033.59
2022-12-23T13:20:42.859Z,97036.00
2022-12-23T13:23:44.438Z,97023.97
2022-12-23T13:26:25.563Z,97023.75
2022-12-23T13:29:17.715Z,97021.31
2022-12-23T13:32:06.033Z,97017.84
2022-12-23T13:34:52.341Z,97014.63
2022-12-23T13:37:44.045Z,97017.53
2022-12-23T13:40:29.725Z,97016.72
2022-12-23T13:43:04.489Z,97022.09
2022-12-23T13:45:38.790Z,97018.06
2022-12-23T13:48:38.735Z,97023.97
2022-12-23T13:51:13.639Z,97020.97
2022-12-23T13:53:47.727Z,97016.91
2022-12-23T13:56:24.178Z,97023.38
2022-12-23T13:58:51.849Z,97024.69
2022-12-23T14:01:18.654Z,97029.03
2022-12-23T14:03:48.827Z,97037.63
2022-12-23T14:06:24.884Z,97026.63
2022-12-23T14:08:54.912Z,97020.50
2022-12-23T14:11:24.391Z,97014.91
2022-12-23T14:13:51.004Z,97010.88
2022-12-23T14:17:00.833Z,97013.84
2022-12-23T14:19:52.948Z,97024.59
2022-12-23T14:22:37.705Z,97032.66
2022-12-23T14:25:38.712Z,97039.66
2022-12-23T14:28:08.596Z,97044.47
2022-12-23T14:30:42.845Z,97039.59
2022-12-23T14:33:18.723Z,97029.38
2022-12-23T14:35:45.507Z,97021.28
2022-12-23T14:38:14.804Z,97023.16
2022-12-23T14:41:19.214Z,97023.91
2022-12-23T14:43:45.775Z,97029.25
2022-12-23T14:46:35.445Z,97034.03
2022-12-23T14:49:37.024Z,97032.69
2022-12-23T14:51:53.164Z,97052.00
2022-12-23T14:54:31.486Z,97057.66
2022-12-23T14:57:08.155Z,97054.47
2022-12-23T14:59:58.146Z,97063.84
2022-12-23T15:02:33.886Z,97055.50
2022-12-23T15:05:01.556Z,97054.69
2022-12-23T15:07:35.875Z,97054.47
2022-12-23T15:10:06.221Z,97061.44
2022-12-23T15:12:37.893Z,97062.81
2022-12-23T15:15:07.484Z,97073.28
2022-12-23T15:17:36.629Z,97070.03
2022-12-23T15:20:15.604Z,97059.28
2022-12-23T15:22:44.884Z,97053.94
2022-12-23T15:25:25.667Z,97055.56
2022-12-23T15:28:01.309Z,97047.75
2022-12-23T15:30:31.291Z,97052.31
2022-12-23T15:33:16.011Z,97050.72
2022-12-23T15:35:52.356Z,97046.72
2022-12-23T15:38:21.602Z,97057.69
2022-12-23T15:41:03.732Z,97053.91
2022-12-23T15:43:31.419Z,97051.22
2022-12-23T15:46:32.879Z,97058.19
2022-12-23T15:49:00.511Z,97052.03
2022-12-23T15:52:05.711Z,97045.31
2022-12-23T15:55:04.194Z,97047.16
2022-12-23T15:57:31.624Z,97046.63
2022-12-23T15:59:59.358Z,97049.31
2022-12-23T16:02:59.269Z,97048.50
2022-12-23T16:05:31.044Z,97041.25
2022-12-23T16:08:11.941Z,97046.34
2022-12-23T16:10:40.742Z,97027.53
2022-12-23T16:13:20.157Z,97019.97
2022-12-23T16:15:47.461Z,97010.72
2022-12-23T16:18:22.041Z,97014.41
2022-12-23T16:20:51.568Z,97020.75
2022-12-23T16:23:18.578Z,97012.69
2022-12-23T16:25:51.150Z,97017.25
2022-12-23T16:28:32.476Z,97013.44
2022-12-23T16:30:59.224Z,97019.00
2022-12-23T16:33:50.693Z,97030.53
2022-12-23T16:36:26.206Z,97045.81
2022-12-23T16:39:34.282Z,97049.56
2022-12-23T16:42:00.902Z,97039.88
2022-12-23T16:44:27.727Z,97028.94
2022-12-23T16:46:54.574Z,97029.47
2022-12-23T16:49:27.969Z,97025.19
2022-12-23T16:51:56.678Z,97029.72
2022-12-23T16:54:23.506Z,97024.88
2022-12-23T16:56:50.258Z,97012.78
2022-12-23T16:59:17.646Z,97006.59
2022-12-23T17:01:49.082Z,97018.41
2022-12-23T17:04:15.993Z,97015.41
2022-12-23T17:06:43.376Z,97012.91
2022-12-23T17:09:10.691Z,97022.84
2022-12-23T17:11:41.711Z,97014.47
2022-12-23T17:14:16.101Z,97026.28
2022-12-23T17:16:43.275Z,97023.59
2022-12-23T17:19:10.050Z,97020.09
2022-12-23T17:21:38.067Z,97018.22
2022-12-23T17:24:09.449Z,97009.38
2022-12-23T17:26:36.274Z,97000.78
2022-12-23T17:29:05.005Z,97002.09
2022-12-23T17:31:33.604Z,96999.94
2022-12-23T17:34:00.983Z,97009.53
2022-12-23T17:36:28.247Z,96993.63
2022-12-23T17:38:55.221Z,96991.94
2022-12-23T17:41:31.197Z,96983.28
2022-12-23T17:43:58.419Z,96988.28
2022-12-23T17:46:25.858Z,96993.81
2022-12-23T17:48:53.800Z,96987.03
2022-12-23T17:51:22.750Z,96997.38
2022-12-23T17:53:57.066Z,96999.66
2022-12-23T17:56:26.963Z,96989.94
2022-12-23T17:58:53.880Z,96992.53
2022-12-23T18:01:29.953Z,96989.81
2022-12-23T18:03:58.247Z,96986.00
2022-12-23T18:06:27.683Z,96983.56
2022-12-23T18:08:54.666Z,96969.84
2022-12-23T18:11:41.975Z,96975.78
2022-12-23T18:14:17.029Z,96973.59
2022-12-23T18:16:43.815Z,96965.50
2022-12-23T18:19:18.988Z,96968.66
2022-12-23T18:21:46.388Z,96968.03
2022-12-23T18:24:13.182Z,96962.09
2022-12-23T18:26:40.264Z,96965.56
2022-12-23T18:29:06.921Z,96952.72
2022-12-23T18:31:33.657Z,96950.75
2022-12-23T18:34:00.524Z,96947.28
2022-12-23T18:36:31.218Z,96956.63
2022-12-23T18:38:58.025Z,96958.72
2022-12-23T18:41:25.782Z,96960.31
2022-12-23T18:43:53.397Z,96951.75
2022-12-23T18:46:20.425Z,96959.84
2022-12-23T18:48:47.641Z,96975.41
2022-12-23T18:51:18.881Z,96970.06
2022-12-23T18:53:47.294Z,96979.16
2022-12-23T18:56:15.553Z,96976.69
2022-12-23T18:58:43.160Z,96980.69
2022-12-23T19:01:17.797Z,96984.41
2022-12-23T19:03:44.851Z,96996.41
2022-12-23T19:06:14.264Z,97002.25
2022-12-23T19:08:42.162Z,97010.25
2022-12-23T19:11:14.229Z,96993.41
2022-12-23T19:13:41.072Z,96992.25
2022-12-23T19:16:08.381Z,96982.38
2022-12-23T19:18:35.077Z,96983.69
2022-12-23T19:21:04.482Z,96990.56
2022-12-23T19:23:31.373Z,96992.66
2022-12-23T19:25:57.995Z,96986.75
2022-12-23T19:28:24.781Z,96991.31
2022-12-23T19:30:51.800Z,96998.16
2022-12-23T19:33:18.653Z,97005.16
2022-12-23T19:35:45.356Z,96992.47
2022-12-23T19:38:12.705Z,96993.53
2022-12-23T19:40:39.796Z,96995.66
2022-12-23T19:43:06.644Z,96986.00
2022-12-23T19:45:33.838Z,96974.66
2022-12-23T19:48:00.485Z,96984.97
2022-12-23T19:50:27.298Z,96986.00
2022-12-23T19:52:56.579Z,96987.06
2022-12-23T19:55:23.364Z,97001.00
2022-12-23T19:57:50.075Z,96990.88
2022-12-23T20:00:17.033Z,96981.25
2022-12-23T20:02:43.889Z,96977.75
2022-12-23T20:05:10.553Z,96982.31
2022-12-23T20:07:38.497Z,96967.28
2022-12-23T20:10:06.258Z,96965.47
2022-12-23T20:12:33.113Z,96963.59
2022-12-23T20:15:00.257Z,96957.66
2022-12-23T20:17:27.026Z,96958.56
2022-12-23T20:19:53.720Z,96953.22
2022-12-23T20:22:20.478Z,96951.91
2022-12-23T20:24:47.117Z,96937.97
2022-12-23T20:27:15.956Z,96933.13
2022-12-23T20:29:43.149Z,96929.88
2022-12-23T20:32:10.342Z,96942.44
2022-12-23T20:34:40.034Z,96936.75
2022-12-23T20:37:07.825Z,96930.06
2022-12-23T20:39:35.474Z,96939.44
2022-12-23T20:42:03.638Z,96938.16
2022-12-23T20:44:35.583Z,96942.19
2022-12-23T20:47:06.778Z,96954.03
2022-12-23T20:49:33.894Z,96951.09
2022-12-23T20:52:00.763Z,96952.47
2022-12-23T20:54:32.544Z,96952.31
2022-12-23T20:57:00.556Z,96954.50
2022-12-23T20:59:27.177Z,96951.34
2022-12-23T21:01:53.991Z,96945.75
2022-12-23T21:04:21.074Z,96961.66
2022-12-23T21:06:47.695Z,96959.28
2022-12-23T21:09:15.473Z,96955.28
2022-12-23T21:11:44.656Z,96969.00
2022-12-23T21:14:11.882Z,96963.16
2022-12-23T21:16:39.578Z,96963.75
2022-12-23T21:19:08.672Z,96966.72
2022-12-23T21:21:35.610Z,96961.94
2022-12-23T21:24:04.783Z,96959.84
2022-12-23T21:26:33.190Z,96946.69
2022-12-23T21:29:02.034Z,96951.00
2022-12-23T21:31:30.943Z,96953.97
2022-12-23T21:33:58.971Z,96950.75
2022-12-23T21:36:29.416Z,96947.09
2022-12-23T21:38:56.820Z,96936.94
2022-12-23T21:41:29.900Z,96941.16
2022-12-23T21:43:57.929Z,96951.13
2022-12-23T21:46:25.887Z,96943.66
2022-12-23T21:48:53.356Z,96941.81
2022-12-23T21:51:39.048Z,96949.34
2022-12-23T21:54:07.039Z,96942.59
2022-12-23T21:56:33.935Z,96936.44
2022-12-23T21:59:03.719Z,96944.53
2022-12-23T22:01:31.384Z,96947.47
2022-12-23T22:03:58.614Z,96954.69
2022-12-23T22:06:28.282Z,96972.63
2022-12-23T22:08:56.025Z,96967.28
2022-12-23T22:11:26.363Z,96962.22
2022-12-23T22:13:53.327Z,96962.56
2022-12-23T22:16:22.624Z,96970.91
2022-12-23T22:18:51.187Z,96965.28
2022-12-23T22:21:23.879Z,96958.88
2022-12-23T22:23:52.731Z,96944.44
2022-12-23T22:26:25.152Z,96947.19
2022-12-23T22:28:54.829Z,96939.47
2022-12-23T22:31:38.561Z,96934.91
2022-12-23T22:34:06.669Z,96937.09
2022-12-23T22:36:33.968Z,96938.69
2022-12-23T22:39:01.897Z,96943.00
2022-12-23T22:41:30.000Z,96944.63
2022-12-23T22:43:58.271Z,96942.50
2022-12-23T22:46:26.414Z,96941.97
2022-12-23T22:48:54.382Z,96947.06
2022-12-23T22:51:23.830Z,96941.19
2022-12-23T22:53:50.528Z,96948.16
2022-12-23T22:56:18.541Z,96951.41
2022-12-23T22:58:45.495Z,96949.06
2022-12-23T23:01:21.714Z,96939.94
2022-12-23T23:03:51.224Z,96930.63
2022-12-23T23:06:18.697Z,96932.22
2022-12-23T23:08:45.642Z,96935.47
2022-12-23T23:11:12.326Z,96935.78
2022-12-23T23:13:39.044Z,96938.50
2022-12-23T23:16:06.419Z,96933.97
2022-12-23T23:18:33.700Z,96933.69
2022-12-23T23:21:00.839Z,96927.03
2022-12-23T23:23:27.713Z,96922.75
2022-12-23T23:25:54.278Z,96915.81
2022-12-23T23:28:21.053Z,96908.06
2022-12-23T23:30:48.151Z,96903.72
2022-12-23T23:33:14.849Z,96900.00
2022-12-23T23:35:41.506Z,96898.38
2022-12-23T23:38:09.230Z,96901.06
2022-12-23T23:40:38.972Z,96892.47
2022-12-23T23:43:05.657Z,96894.03
2022-12-23T23:45:32.624Z,96878.16
2022-12-23T23:47:59.296Z,96888.88
2022-12-23T23:50:25.909Z,96891.78
2022-12-23T23:52:52.873Z,96902.50
2022-12-23T23:55:19.690Z,96907.38
2022-12-23T23:57:46.357Z,96886.44
